Time;durP1;ratioP1;P1;durP2;ratioP2;P2;SDS_P1;SDS_P2;PMS_P1;PMS_P2;Temp;Humidity;BMP_temperature;BMP_pressure;BME280_temperature;BME280_humidity;BME280_pressure;Samples;Min_cycle;Max_cycle;Signal;HPM_P1;HPM_P2
2022/06/25 00:00:13;;;;;;;7.78;4.70;;;;;;;15.21;100.00;100209.16;689768;28;1022;-45
2022/06/25 00:00:34;;;;;;;7.13;4.50;;;;;;;15.19;100.00;100211.84;690393;28;4520;-46
2022/06/25 00:00:54;;;;;;;7.40;4.50;;;;;;;15.19;100.00;100206.56;690279;28;813;-47
2022/06/25 00:01:15;;;;;;;7.33;4.70;;;;;;;15.18;100.00;100210.09;690166;28;959;-46
2022/06/25 00:01:37;;;;;;;6.43;4.80;;;;;;;15.15;100.00;100202.31;690469;28;977;-44
2022/06/25 00:01:57;;;;;;;7.07;4.82;;;;;;;15.18;100.00;100207.47;689219;28;919;-44
2022/06/25 00:02:17;;;;;;;7.72;4.95;;;;;;;15.18;100.00;100207.47;689574;28;998;-45
2022/06/25 00:02:38;;;;;;;6.80;5.07;;;;;;;15.18;100.00;100204.00;690963;28;856;-44
2022/06/25 00:02:58;;;;;;;6.57;4.70;;;;;;;15.18;100.00;100212.75;690785;28;895;-45
2022/06/25 00:03:18;;;;;;;6.82;4.70;;;;;;;15.18;100.00;100210.09;689318;28;1914;-46
2022/06/25 00:03:40;;;;;;;6.70;4.60;;;;;;;15.19;100.00;100206.56;689990;28;4318;-44
2022/06/25 00:04:00;;;;;;;6.82;4.50;;;;;;;15.17;100.00;100208.38;690133;28;844;-45
2022/06/25 00:05:38;;;;;;;7.95;4.50;;;;;;;15.21;100.00;100204.75;690757;28;1010;-47
2022/06/25 00:05:59;;;;;;;7.83;4.80;;;;;;;15.21;100.00;100204.75;690825;28;858;-44
2022/06/25 00:06:20;;;;;;;6.57;4.65;;;;;;;15.21;100.00;100210.00;690682;28;1049;-45
2022/06/25 00:06:40;;;;;;;5.82;4.43;;;;;;;15.19;100.00;100211.84;690214;28;5788;-47
2022/06/25 00:07:01;;;;;;;7.10;4.50;;;;;;;15.18;100.00;100210.09;690863;28;813;-45
2022/06/25 00:07:21;;;;;;;5.83;4.40;;;;;;;15.18;100.00;100212.75;690449;28;1170;-46
2022/06/25 00:07:42;;;;;;;7.07;4.40;;;;;;;15.20;100.00;100208.28;690262;28;951;-45
2022/06/25 00:08:02;;;;;;;6.37;4.33;;;;;;;15.19;100.00;100209.19;692930;28;1413;-46
2022/06/25 00:08:23;;;;;;;6.85;4.80;;;;;;;15.21;100.00;100210.00;692764;28;1255;-45
2022/06/25 00:08:45;;;;;;;6.57;4.60;;;;;;;15.21;100.00;100210.00;693503;28;781;-45
2022/06/25 00:09:05;;;;;;;5.68;4.50;;;;;;;15.20;100.00;100213.53;692612;28;1357;-44
2022/06/25 00:09:25;;;;;;;7.35;4.47;;;;;;;15.19;100.00;100213.59;692171;28;4335;-45
2022/06/25 00:09:46;;;;;;;5.70;4.53;;;;;;;15.15;100.00;100221.59;692434;28;804;-45
2022/06/25 00:10:07;;;;;;;6.90;4.55;;;;;;;15.15;100.00;100213.69;690095;28;1090;-46
2022/06/25 00:10:27;;;;;;;7.28;4.60;;;;;;;15.15;100.00;100220.75;688634;28;1236;-45
2022/06/25 00:10:48;;;;;;;6.47;4.47;;;;;;;15.16;100.00;100214.56;689601;28;895;-45
2022/06/25 00:11:08;;;;;;;5.57;4.28;;;;;;;15.16;100.00;100217.22;690126;28;1061;-45
2022/06/25 00:12:47;;;;;;;6.95;4.80;;;;;;;15.14;100.00;100219.00;687338;28;4962;-45
2022/06/25 00:13:07;;;;;;;6.33;4.77;;;;;;;15.13;100.00;100212.00;690086;28;1018;-45
2022/06/25 00:13:28;;;;;;;6.00;4.33;;;;;;;15.14;100.00;100217.22;690539;28;1277;-44
2022/06/25 00:13:48;;;;;;;5.32;4.20;;;;;;;15.15;100.00;100215.47;690054;28;1219;-45
2022/06/25 00:14:11;;;;;;;8.33;4.50;;;;;;;15.14;100.00;100219.84;688915;28;880;-46
2022/06/25 00:14:31;;;;;;;6.88;4.28;;;;;;;15.13;100.00;100212.91;693043;28;1366;-44
2022/06/25 00:14:52;;;;;;;4.90;4.20;;;;;;;15.15;100.00;100221.59;692129;28;797;-45
2022/06/25 00:15:12;;;;;;;6.70;4.70;;;;;;;15.16;100.00;100225.09;693284;28;1324;-45
2022/06/25 00:15:33;;;;;;;6.70;4.20;;;;;;;15.14;100.00;100219.00;692793;28;4481;-44
2022/06/25 00:15:53;;;;;;;9.77;4.88;;;;;;;15.13;100.00;100227.81;690644;28;825;-44
2022/06/25 00:16:13;;;;;;;9.50;4.80;;;;;;;15.14;100.00;100219.00;690715;28;1119;-44
2022/06/25 00:16:34;;;;;;;6.70;4.65;;;;;;;15.17;100.00;100218.91;690687;28;943;-44
2022/06/25 00:16:55;;;;;;;6.03;4.95;;;;;;;15.21;100.00;100220.53;690155;28;1231;-44
2022/06/25 00:17:15;;;;;;;6.33;4.47;;;;;;;15.22;100.00;100224.06;690410;28;1047;-46
2022/06/25 00:17:36;;;;;;;6.88;4.07;;;;;;;15.20;100.00;100215.31;690478;28;983;-46
2022/06/25 00:17:56;;;;;;;6.13;4.20;;;;;;;15.19;100.00;100221.50;690315;28;900;-44
2022/06/25 00:18:17;;;;;;;5.33;4.00;;;;;;;15.19;100.00;100218.84;689535;28;989;-45
2022/06/25 00:18:37;;;;;;;5.90;4.03;;;;;;;15.18;100.00;100220.63;691185;28;4686;-47
2022/06/25 00:18:57;;;;;;;6.70;4.22;;;;;;;15.14;100.00;100222.50;688372;28;896;-47
2022/06/25 00:19:18;;;;;;;7.10;4.63;;;;;;;15.11;100.00;100221.75;687050;28;1016;-45
2022/06/25 00:19:38;;;;;;;8.43;5.13;;;;;;;15.11;100.00;100227.00;688177;28;837;-45
2022/06/25 00:19:59;;;;;;;7.53;4.60;;;;;;;15.11;100.00;100221.75;687246;28;3787;-44
2022/06/25 00:20:21;;;;;;;6.30;4.53;;;;;;;15.11;100.00;100224.38;687395;28;872;-46
2022/06/25 00:20:43;;;;;;;6.80;4.68;;;;;;;15.10;100.00;100222.63;687813;28;1088;-47
2022/06/25 00:21:03;;;;;;;6.57;4.57;;;;;;;15.09;100.00;100223.53;690162;28;1091;-44
2022/06/25 00:21:23;;;;;;;6.83;4.40;;;;;;;15.09;100.00;100226.19;691078;28;4284;-45
2022/06/25 00:21:44;;;;;;;7.10;4.87;;;;;;;15.05;100.00;100219.28;690701;28;876;-46
2022/06/25 00:22:04;;;;;;;7.50;4.68;;;;;;;15.06;100.00;100221.00;690563;28;1146;-44
2022/06/25 00:22:25;;;;;;;6.57;4.50;;;;;;;15.05;100.00;100229.81;691149;28;990;-44
2022/06/25 00:22:45;;;;;;;6.00;4.40;;;;;;;15.05;100.00;100220.16;690627;28;847;-45
2022/06/25 00:23:06;;;;;;;8.23;4.90;;;;;;;15.04;100.00;100221.06;690336;28;943;-45
2022/06/25 00:23:26;;;;;;;7.43;4.80;;;;;;;15.04;100.00;100231.59;690804;28;1988;-46
2022/06/25 00:23:47;;;;;;;6.83;4.60;;;;;;;15.04;100.00;100228.09;690841;28;1407;-44
2022/06/25 00:24:07;;;;;;;6.80;4.38;;;;;;;15.03;100.00;100226.38;691005;28;926;-48
2022/06/25 00:24:27;;;;;;;6.93;4.33;;;;;;;15.03;100.00;100229.00;690737;28;4334;-46
2022/06/25 00:24:48;;;;;;;6.53;4.30;;;;;;;15.03;100.00;100231.63;693630;28;947;-46
2022/06/25 00:25:09;;;;;;;6.30;4.53;;;;;;;15.03;100.00;100227.22;693287;28;955;-45
2022/06/25 00:25:29;;;;;;;7.40;4.50;;;;;;;15.03;100.00;100229.00;693427;28;1258;-44
2022/06/25 00:25:50;;;;;;;6.55;4.53;;;;;;;15.04;100.00;100225.47;693117;28;1501;-45
2022/06/25 00:26:10;;;;;;;7.47;4.80;;;;;;;15.04;100.00;100228.09;692813;28;1482;-45
2022/06/25 00:26:30;;;;;;;7.77;4.57;;;;;;;15.04;100.00;100228.97;693662;28;835;-44
2022/06/25 00:26:51;;;;;;;7.90;4.67;;;;;;;15.04;100.00;100233.38;691850;28;869;-46
2022/06/25 00:27:11;;;;;;;6.50;4.70;;;;;;;15.04;100.00;100226.31;693043;28;1390;-48
2022/06/25 00:27:31;;;;;;;7.20;4.90;;;;;;;15.02;100.00;100230.75;692017;28;4293;-44
2022/06/25 00:27:52;;;;;;;6.73;4.70;;;;;;;15.00;100.00;100237.00;690842;28;1209;-46
2022/06/25 00:28:12;;;;;;;7.70;4.40;;;;;;;15.02;100.00;100229.91;690577;28;881;-45
2022/06/25 00:28:32;;;;;;;12.13;4.55;;;;;;;15.02;100.00;100228.13;690533;28;860;-46
2022/06/25 00:28:53;;;;;;;10.23;4.40;;;;;;;15.03;100.00;100236.91;691405;28;1034;-44
2022/06/25 00:29:14;;;;;;;7.38;4.65;;;;;;;15.00;100.00;100237.84;688007;28;912;-44
2022/06/25 00:29:35;;;;;;;6.13;4.60;;;;;;;14.99;100.00;100230.84;687923;28;1496;-46
2022/06/25 00:29:56;;;;;;;5.70;4.60;;;;;;;15.01;100.00;100238.69;691180;28;766;-46
2022/06/25 00:30:16;;;;;;;6.28;4.70;;;;;;;15.01;100.00;100236.06;690103;28;1113;-45
2022/06/25 00:30:37;;;;;;;5.80;4.70;;;;;;;15.00;100.00;100235.22;690172;28;4367;-45
2022/06/25 00:30:58;;;;;;;6.45;4.80;;;;;;;15.02;100.00;100237.81;688376;28;1172;-44
2022/06/25 00:31:18;;;;;;;6.37;4.60;;;;;;;15.02;100.00;100240.44;690029;28;1050;-48
2022/06/25 00:31:38;;;;;;;5.95;4.43;;;;;;;15.01;100.00;100233.44;690572;28;954;-46
2022/06/25 00:31:59;;;;;;;7.30;4.90;;;;;;;15.01;100.00;100241.34;690954;28;1006;-46
2022/06/25 00:32:19;;;;;;;7.10;4.70;;;;;;;15.00;100.00;100237.00;687726;28;1209;-45
2022/06/25 00:32:40;;;;;;;6.77;4.70;;;;;;;14.98;100.00;100240.53;688385;28;1369;-47
2022/06/25 00:33:00;;;;;;;7.68;4.75;;;;;;;14.98;100.00;100240.53;690964;28;844;-45
2022/06/25 00:33:21;;;;;;;7.40;4.67;;;;;;;14.97;100.00;100236.16;687254;28;4439;-45
2022/06/25 00:33:41;;;;;;;8.77;5.15;;;;;;;14.94;100.00;100235.41;687717;28;1183;-45
2022/06/25 00:34:02;;;;;;;10.30;5.53;;;;;;;14.91;100.00;100236.38;687647;28;1552;-45
2022/06/25 00:34:22;;;;;;;7.60;4.60;;;;;;;14.91;100.00;100238.13;690449;28;1001;-46
2022/06/25 00:34:43;;;;;;;6.40;4.53;;;;;;;14.92;100.00;100237.22;690267;28;1074;-44
2022/06/25 00:35:04;;;;;;;7.73;4.80;;;;;;;14.91;100.00;100233.75;690051;28;892;-45
2022/06/25 00:35:25;;;;;;;8.65;4.80;;;;;;;14.91;100.00;100239.00;690208;28;1491;-44
2022/06/25 00:35:46;;;;;;;7.40;4.82;;;;;;;14.91;100.00;100232.84;693225;28;891;-44
2022/06/25 00:36:06;;;;;;;7.70;5.00;;;;;;;14.92;100.00;100238.06;693294;28;1011;-44
2022/06/25 00:36:27;;;;;;;6.72;4.68;;;;;;;14.93;100.00;100237.16;692031;28;4258;-47
2022/06/25 00:36:47;;;;;;;5.43;4.47;;;;;;;14.93;100.00;100237.16;690347;28;784;-47
2022/06/25 00:37:08;;;;;;;6.43;4.53;;;;;;;14.93;100.00;100237.16;693135;28;1343;-45
2022/06/25 00:37:28;;;;;;;7.57;4.77;;;;;;;14.95;100.00;100240.63;692915;28;888;-44
2022/06/25 00:37:49;;;;;;;8.00;4.93;;;;;;;14.96;100.00;100242.34;694150;28;1211;-45
2022/06/25 00:38:09;;;;;;;6.70;4.80;;;;;;;14.95;100.00;100239.75;691028;28;947;-46
2022/06/25 00:38:29;;;;;;;7.50;4.40;;;;;;;14.93;100.00;100245.06;690203;28;989;-44
2022/06/25 00:38:50;;;;;;;9.97;4.67;;;;;;;14.93;100.00;100245.06;688384;28;1197;-44
2022/06/25 00:39:10;;;;;;;7.43;4.60;;;;;;;14.91;100.00;100244.25;687072;28;1037;-45
2022/06/25 00:39:31;;;;;;;7.27;4.60;;;;;;;14.91;100.00;100249.53;687435;28;4336;-46
2022/06/25 00:39:51;;;;;;;7.90;4.60;;;;;;;14.93;100.00;100242.44;688401;28;771;-46
2022/06/25 00:40:12;;;;;;;6.70;4.32;;;;;;;14.92;100.00;100247.75;689271;28;1090;-46
2022/06/25 00:40:33;;;;;;;6.90;4.30;;;;;;;14.92;100.00;100242.47;689977;28;1331;-45
2022/06/25 00:40:53;;;;;;;8.93;4.30;;;;;;;14.91;100.00;100244.25;690942;28;954;-46
2022/06/25 00:41:13;;;;;;;7.40;4.43;;;;;;;14.91;100.00;100244.25;690289;28;1429;-46
2022/06/25 00:41:34;;;;;;;5.87;4.60;;;;;;;14.91;100.00;100240.75;690598;28;1243;-44
2022/06/25 00:41:54;;;;;;;5.50;4.65;;;;;;;14.90;100.00;100247.78;690896;28;908;-44
2022/06/25 00:42:14;;;;;;;8.43;5.13;;;;;;;14.91;100.00;100248.66;687757;28;1544;-45
2022/06/25 00:42:35;;;;;;;7.83;5.23;;;;;;;14.89;100.00;100246.06;687106;28;5160;-46
2022/06/25 00:42:55;;;;;;;8.83;5.20;;;;;;;14.90;100.00;100245.16;687313;28;919;-45
2022/06/25 00:43:18;;;;;;;8.45;5.05;;;;;;;14.88;100.00;100246.97;687878;28;1938;-45
2022/06/25 00:43:39;;;;;;;7.35;4.72;;;;;;;14.88;100.00;100240.84;690247;28;868;-45
2022/06/25 00:44:05;;;;;;;6.75;4.50;;;;;;;14.88;100.00;100241.69;689436;28;1353;-44
2022/06/25 00:44:32;;;;;;;6.55;4.55;;;;;;;14.89;100.00;100246.06;689853;28;951;-45
2022/06/25 00:44:53;;;;;;;6.38;4.70;;;;;;;14.90;100.00;100239.06;691020;28;999;-46
2022/06/25 00:45:14;;;;;;;7.22;4.50;;;;;;;14.89;100.00;100246.06;692687;28;1027;-45
2022/06/25 00:45:37;;;;;;;6.15;4.82;;;;;;;14.88;100.00;100244.31;687352;28;4312;-45
2022/06/25 00:45:57;;;;;;;6.63;4.63;;;;;;;14.89;100.00;100246.06;687867;28;1113;-45
2022/06/25 00:46:18;;;;;;;6.63;4.80;;;;;;;14.89;100.00;100240.81;687455;28;1225;-44
2022/06/25 00:46:39;;;;;;;6.50;4.70;;;;;;;14.89;100.00;100248.69;689586;28;808;-45
2022/06/25 00:47:00;;;;;;;6.72;4.85;;;;;;;14.88;100.00;100241.69;688559;28;848;-45
2022/06/25 00:47:20;;;;;;;5.90;4.77;;;;;;;14.88;100.00;100243.47;690085;28;1317;-45
2022/06/25 00:47:40;;;;;;;7.40;4.70;;;;;;;14.88;100.00;100244.31;690397;28;927;-45
2022/06/25 00:48:01;;;;;;;7.73;4.67;;;;;;;14.88;100.00;100246.97;690598;28;1295;-44
2022/06/25 00:48:21;;;;;;;6.82;4.80;;;;;;;14.89;100.00;100240.81;690253;28;4588;-46
2022/06/25 00:48:42;;;;;;;5.50;4.80;;;;;;;14.88;100.00;100244.31;690659;28;974;-45
2022/06/25 00:49:03;;;;;;;5.70;4.60;;;;;;;14.90;100.00;100250.44;690432;28;954;-46
2022/06/25 00:49:24;;;;;;;5.55;4.75;;;;;;;14.90;100.00;100246.94;693473;28;950;-44
2022/06/25 00:49:44;;;;;;;6.93;5.20;;;;;;;14.88;100.00;100246.09;694131;28;1586;-44
2022/06/25 00:50:05;;;;;;;6.60;5.07;;;;;;;14.88;100.00;100246.97;693059;28;973;-45
2022/06/25 00:50:26;;;;;;;6.78;4.88;;;;;;;14.89;100.00;100245.22;693562;28;1422;-47
2022/06/25 00:50:46;;;;;;;6.18;4.85;;;;;;;14.88;100.00;100240.84;694347;28;815;-47
2022/06/25 00:51:11;;;;;;;6.23;5.10;;;;;;;14.88;100.00;100244.31;692660;28;1198;-44
2022/06/25 00:51:33;;;;;;;6.72;5.15;;;;;;;14.88;100.00;100238.22;689000;28;4382;-46
2022/06/25 00:51:56;;;;;;;5.88;4.90;;;;;;;14.88;100.00;100246.97;687987;28;1247;-46
2022/06/25 00:52:19;;;;;;;6.47;4.68;;;;;;;14.89;100.00;100238.16;687631;28;1153;-45
2022/06/25 00:52:42;;;;;;;7.40;4.70;;;;;;;14.89;100.00;100243.44;686829;28;1527;-44
2022/06/25 00:53:07;;;;;;;6.38;4.63;;;;;;;14.89;100.00;100237.31;687356;28;1564;-46
2022/06/25 00:53:32;;;;;;;7.05;4.72;;;;;;;14.87;100.00;100247.00;690749;28;950;-44
2022/06/25 00:53:55;;;;;;;7.72;5.15;;;;;;;14.85;100.00;100241.78;687555;28;1569;-45
2022/06/25 00:54:17;;;;;;;6.35;5.03;;;;;;;14.86;100.00;100246.16;686654;28;964;-45
2022/06/25 00:54:44;;;;;;;6.50;4.80;;;;;;;14.85;100.00;100240.94;689040;28;4687;-44
2022/06/25 00:55:10;;;;;;;6.38;4.90;;;;;;;14.84;100.00;100245.31;689563;28;1846;-47
2022/06/25 00:55:31;;;;;;;6.93;4.90;;;;;;;14.87;100.00;100244.38;690263;28;836;-44
2022/06/25 00:55:52;;;;;;;6.65;4.93;;;;;;;14.87;100.00;100247.00;690577;28;792;-46
2022/06/25 00:56:14;;;;;;;7.60;5.32;;;;;;;14.86;100.00;100243.53;689340;28;1184;-45
2022/06/25 00:56:41;;;;;;;6.10;4.80;;;;;;;14.85;100.00;100244.44;690706;28;1564;-46
2022/06/25 00:57:05;;;;;;;6.57;4.80;;;;;;;14.85;100.00;100244.44;689040;28;916;-46
2022/06/25 00:57:28;;;;;;;6.78;4.70;;;;;;;14.88;100.00;100251.38;687384;28;4757;-45
2022/06/25 00:57:50;;;;;;;7.10;4.50;;;;;;;14.89;100.00;100247.84;687556;28;825;-45
2022/06/25 00:58:13;;;;;;;6.47;5.50;;;;;;;14.87;100.00;100247.88;687485;28;1240;-46
2022/06/25 00:58:38;;;;;;;6.60;5.05;;;;;;;14.87;100.00;100249.63;685187;28;1402;-46
2022/06/25 00:59:02;;;;;;;6.10;4.72;;;;;;;14.87;100.00;100254.91;687080;28;904;-44
2022/06/25 00:59:27;;;;;;;9.25;4.93;;;;;;;14.86;100.00;100245.31;686343;28;1433;-45
2022/06/25 00:59:50;;;;;;;8.00;5.13;;;;;;;14.86;100.00;100255.84;684126;28;1479;-44
2022/06/25 01:00:17;;;;;;;9.48;5.78;;;;;;;14.85;100.00;100248.84;685109;28;890;-45
2022/06/25 01:00:39;;;;;;;7.85;5.20;;;;;;;14.84;100.00;100249.75;685263;28;5565;-44
2022/06/25 01:01:00;;;;;;;6.72;5.00;;;;;;;14.84;100.00;100252.38;687304;28;924;-46
2022/06/25 01:01:20;;;;;;;6.55;5.15;;;;;;;14.83;100.00;100251.53;687895;28;1420;-45
2022/06/25 01:01:42;;;;;;;6.07;4.90;;;;;;;14.82;100.00;100255.03;689412;28;1251;-46
2022/06/25 01:02:02;;;;;;;5.90;4.83;;;;;;;14.82;100.00;100252.41;689828;28;926;-45
2022/06/25 01:02:23;;;;;;;7.10;4.97;;;;;;;14.82;100.00;100258.53;687832;28;871;-44
2022/06/25 01:02:44;;;;;;;8.30;5.20;;;;;;;14.84;100.00;100257.63;687672;28;867;-45
2022/06/25 01:03:05;;;;;;;9.40;5.70;;;;;;;14.85;100.00;100254.09;688218;28;976;-46
2022/06/25 01:03:27;;;;;;;6.00;4.90;;;;;;;14.83;100.00;100251.53;689927;28;5947;-46
2022/06/25 01:03:47;;;;;;;6.63;5.15;;;;;;;14.85;100.00;100262.84;691048;28;1707;-46
2022/06/25 01:04:09;;;;;;;6.65;5.05;;;;;;;14.85;100.00;100252.31;685988;28;1077;-45
2022/06/25 01:04:30;;;;;;;7.63;5.53;;;;;;;14.85;100.00;100260.22;687110;28;808;-46
2022/06/25 01:04:51;;;;;;;7.82;5.50;;;;;;;14.86;100.00;100256.69;686969;28;1302;-46
2022/06/25 01:05:13;;;;;;;6.85;5.40;;;;;;;14.86;100.00;100248.78;687614;28;925;-45
2022/06/25 01:05:33;;;;;;;6.15;5.50;;;;;;;14.86;100.00;100256.69;687856;28;1002;-46
2022/06/25 01:05:54;;;;;;;8.27;5.33;;;;;;;14.89;100.00;100258.38;687603;28;856;-46
2022/06/25 01:06:15;;;;;;;8.70;5.35;;;;;;;14.89;100.00;100250.47;688730;28;1200;-47
2022/06/25 01:06:36;;;;;;;7.40;5.23;;;;;;;14.88;100.00;100256.63;688606;28;5256;-45
2022/06/25 01:06:56;;;;;;;8.90;5.10;;;;;;;14.88;100.00;100259.28;686763;28;817;-46
2022/06/25 01:07:18;;;;;;;9.68;5.40;;;;;;;14.87;100.00;100253.16;686419;28;1322;-46
2022/06/25 01:07:39;;;;;;;7.97;5.40;;;;;;;14.86;100.00;100256.69;687292;28;905;-45
2022/06/25 01:08:00;;;;;;;8.13;5.20;;;;;;;14.87;100.00;100260.16;689740;28;1014;-43
2022/06/25 01:08:21;;;;;;;6.83;5.20;;;;;;;14.86;100.00;100261.94;687089;28;1400;-45
2022/06/25 01:08:42;;;;;;;7.53;5.45;;;;;;;14.86;100.00;100254.06;687779;28;961;-44
2022/06/25 01:09:02;;;;;;;6.75;5.40;;;;;;;14.85;100.00;100254.09;687905;28;812;-44
2022/06/25 01:09:23;;;;;;;7.33;5.70;;;;;;;14.85;100.00;100254.94;686165;28;4566;-44
2022/06/25 01:09:46;;;;;;;6.75;5.50;;;;;;;14.85;100.00;100257.59;687450;28;1199;-45
2022/06/25 01:10:07;;;;;;;7.05;4.88;;;;;;;14.86;100.00;100256.69;688341;28;1221;-45
2022/06/25 01:10:28;;;;;;;7.43;5.18;;;;;;;14.87;100.00;100262.81;687967;28;1555;-45
2022/06/25 01:10:49;;;;;;;6.90;5.07;;;;;;;14.87;100.00;100261.06;689006;28;958;-44
2022/06/25 01:11:11;;;;;;;8.13;5.30;;;;;;;14.88;100.00;100265.38;690137;28;1448;-45
2022/06/25 01:11:31;;;;;;;6.45;4.93;;;;;;;14.89;100.00;100256.59;687793;28;1041;-45
2022/06/25 01:11:51;;;;;;;7.87;4.80;;;;;;;14.90;100.00;100263.59;684770;28;1646;-44
2022/06/25 01:12:12;;;;;;;7.15;4.82;;;;;;;14.90;100.00;100262.72;684966;28;1009;-45
2022/06/25 01:12:34;;;;;;;8.00;5.05;;;;;;;14.88;100.00;100256.63;681535;28;4441;-45
2022/06/25 01:12:54;;;;;;;6.13;4.90;;;;;;;14.89;100.00;100261.84;682522;28;1010;-43
2022/06/25 01:13:15;;;;;;;6.72;4.78;;;;;;;14.89;100.00;100263.63;687063;28;1355;-44
2022/06/25 01:13:35;;;;;;;7.90;5.00;;;;;;;14.89;100.00;100256.59;684411;28;1169;-43
2022/06/25 01:13:56;;;;;;;8.90;5.30;;;;;;;14.88;100.00;100259.28;685383;28;1362;-44
2022/06/25 01:14:16;;;;;;;9.80;5.40;;;;;;;14.87;100.00;100261.06;685186;28;1055;-43
2022/06/25 01:14:37;;;;;;;9.53;5.43;;;;;;;14.88;100.00;100264.53;685876;28;785;-45
2022/06/25 01:15:19;;;;;;;7.47;5.20;;;;;;;14.86;100.00;100259.31;685692;28;1454;-45
2022/06/25 01:15:40;;;;;;;6.47;5.32;;;;;;;14.85;100.00;100268.09;687840;28;5061;-46
2022/06/25 01:16:01;;;;;;;6.17;5.47;;;;;;;14.88;100.00;100261.91;686942;28;1336;-45
2022/06/25 01:16:22;;;;;;;7.55;5.53;;;;;;;14.88;100.00;100265.38;684771;28;1202;-46
2022/06/25 01:16:44;;;;;;;6.32;5.03;;;;;;;14.88;100.00;100265.38;685855;28;1390;-45
2022/06/25 01:17:09;;;;;;;7.87;5.13;;;;;;;14.89;100.00;100266.25;686877;28;1317;-48
2022/06/25 01:17:29;;;;;;;8.20;5.50;;;;;;;14.89;100.00;100264.47;687743;28;1232;-46
2022/06/25 01:17:52;;;;;;;6.97;5.13;;;;;;;14.88;100.00;100268.00;688346;28;911;-46
2022/06/25 01:18:14;;;;;;;6.75;5.05;;;;;;;14.88;100.00;100265.38;684756;28;1497;-45
2022/06/25 01:18:34;;;;;;;7.72;5.13;;;;;;;14.87;100.00;100273.31;685402;28;4396;-45
2022/06/25 01:18:55;;;;;;;7.20;5.10;;;;;;;14.86;100.00;100266.38;688025;28;1296;-48
2022/06/25 01:19:15;;;;;;;7.13;5.07;;;;;;;14.85;100.00;100268.09;687978;28;1094;-46
2022/06/25 01:19:37;;;;;;;8.07;4.73;;;;;;;14.85;100.00;100273.38;688595;28;1115;-45
2022/06/25 01:19:57;;;;;;;9.55;5.00;;;;;;;14.84;100.00;100273.41;686115;28;1322;-46
2022/06/25 01:20:25;;;;;;;7.70;5.10;;;;;;;14.83;100.00;100272.56;685123;28;1216;-46
2022/06/25 01:20:46;;;;;;;7.80;4.90;;;;;;;14.83;100.00;100272.56;685877;28;927;-47
2022/06/25 01:21:06;;;;;;;7.03;5.05;;;;;;;14.82;100.00;100268.22;681919;28;1185;-45
2022/06/25 01:21:27;;;;;;;6.33;5.20;;;;;;;14.82;100.00;100271.69;679696;28;4274;-46
2022/06/25 01:21:47;;;;;;;5.82;5.03;;;;;;;14.83;100.00;100275.19;682925;28;1678;-44
2022/06/25 01:22:08;;;;;;;6.50;5.10;;;;;;;14.84;100.00;100270.78;686730;28;1632;-44
2022/06/25 01:22:28;;;;;;;5.93;5.20;;;;;;;14.87;100.00;100274.22;684959;28;1248;-44
2022/06/25 01:22:49;;;;;;;7.93;5.10;;;;;;;14.87;100.00;100268.94;683600;28;1213;-44
2022/06/25 01:23:13;;;;;;;5.73;4.67;;;;;;;14.88;100.00;100275.91;684763;28;975;-45
2022/06/25 01:23:33;;;;;;;5.90;4.75;;;;;;;14.89;100.00;100276.78;687259;28;1907;-47
2022/06/25 01:23:54;;;;;;;6.00;4.75;;;;;;;14.89;100.00;100277.66;687844;28;1187;-44
2022/06/25 01:24:14;;;;;;;5.83;4.67;;;;;;;14.89;100.00;100276.78;689504;28;1277;-44
2022/06/25 01:24:36;;;;;;;6.70;5.30;;;;;;;14.88;100.00;100280.31;690030;28;4424;-47
2022/06/25 01:24:57;;;;;;;6.93;5.03;;;;;;;14.87;100.00;100279.47;690131;28;800;-45
2022/06/25 01:25:17;;;;;;;6.88;4.75;;;;;;;14.86;100.00;100279.53;687600;28;873;-45
2022/06/25 01:25:39;;;;;;;6.43;4.97;;;;;;;14.85;100.00;100281.28;690781;28;950;-45
2022/06/25 01:26:00;;;;;;;5.22;4.72;;;;;;;14.86;100.00;100277.75;690360;28;1198;-44
2022/06/25 01:26:20;;;;;;;6.93;5.30;;;;;;;14.85;100.00;100280.41;689563;28;1294;-45
2022/06/25 01:26:41;;;;;;;6.03;5.00;;;;;;;14.84;100.00;100279.53;691526;28;785;-45
2022/06/25 01:27:12;;;;;;;6.05;5.13;;;;;;;14.83;100.00;100277.84;691358;28;1398;-46
2022/06/25 01:27:32;;;;;;;7.20;5.10;;;;;;;14.84;100.00;100279.53;692608;28;4493;-45
2022/06/25 01:27:52;;;;;;;6.97;5.00;;;;;;;14.87;100.00;100281.22;691535;28;939;-44
2022/06/25 01:28:13;;;;;;;7.20;5.20;;;;;;;14.85;100.00;100285.69;688396;28;901;-44
2022/06/25 01:28:33;;;;;;;7.35;5.05;;;;;;;14.84;100.00;100283.94;685338;28;1178;-45
2022/06/25 01:28:54;;;;;;;6.47;5.03;;;;;;;14.82;100.00;100284.84;685426;28;1060;-46
2022/06/25 01:29:14;;;;;;;7.15;5.50;;;;;;;14.82;100.00;100281.38;684980;28;924;-44
2022/06/25 01:29:35;;;;;;;8.02;5.28;;;;;;;14.81;100.00;100279.63;685893;28;1438;-44
2022/06/25 01:29:56;;;;;;;8.15;5.20;;;;;;;14.81;100.00;100277.00;684510;28;1681;-46
2022/06/25 01:30:16;;;;;;;7.10;5.20;;;;;;;14.79;100.00;100284.09;688146;28;961;-45
2022/06/25 01:30:37;;;;;;;7.17;5.50;;;;;;;14.78;100.00;100279.72;689740;28;4373;-44
2022/06/25 01:30:58;;;;;;;5.75;4.72;;;;;;;14.79;100.00;100284.09;687370;28;1244;-47
2022/06/25 01:31:19;;;;;;;6.38;4.88;;;;;;;14.77;100.00;100273.63;687756;28;1539;-46
2022/06/25 01:31:39;;;;;;;7.53;5.37;;;;;;;14.79;100.00;100290.19;687547;28;901;-44
2022/06/25 01:31:59;;;;;;;6.53;4.90;;;;;;;14.79;100.00;100284.09;690344;28;1014;-45
2022/06/25 01:32:20;;;;;;;6.70;4.60;;;;;;;14.78;100.00;100277.94;687191;28;1280;-46
2022/06/25 01:32:40;;;;;;;6.90;4.57;;;;;;;14.79;100.00;100281.47;684991;28;1166;-45
2022/06/25 01:33:01;;;;;;;7.93;5.13;;;;;;;14.82;100.00;100278.72;682766;28;1177;-45
2022/06/25 01:33:21;;;;;;;7.97;5.60;;;;;;;14.82;100.00;100284.84;682214;28;4556;-46
2022/06/25 01:33:42;;;;;;;7.13;5.18;;;;;;;14.82;100.00;100276.94;682027;28;798;-45
2022/06/25 01:34:03;;;;;;;6.80;5.07;;;;;;;14.82;100.00;100281.38;682505;28;822;-45
2022/06/25 01:34:23;;;;;;;8.98;5.25;;;;;;;14.81;100.00;100280.50;684560;28;1431;-47
2022/06/25 01:34:43;;;;;;;6.23;5.03;;;;;;;14.79;100.00;100284.09;685246;28;1089;-44
2022/06/25 01:35:05;;;;;;;6.60;5.20;;;;;;;14.78;100.00;100279.72;685257;28;968;-46
2022/06/25 01:35:28;;;;;;;7.00;5.25;;;;;;;14.78;100.00;100279.72;688138;28;1497;-44
2022/06/25 01:35:49;;;;;;;6.18;5.07;;;;;;;14.78;100.00;100279.72;688038;28;1152;-44
2022/06/25 01:36:09;;;;;;;6.43;5.00;;;;;;;14.78;100.00;100284.97;686789;28;1219;-46
2022/06/25 01:36:29;;;;;;;6.80;4.63;;;;;;;14.79;100.00;100278.81;684406;28;4313;-45
2022/06/25 01:36:50;;;;;;;6.40;4.53;;;;;;;14.78;100.00;100280.56;685369;28;1582;-46
2022/06/25 01:37:10;;;;;;;7.63;4.88;;;;;;;14.79;100.00;100284.94;685147;28;1065;-47
2022/06/25 01:37:34;;;;;;;7.20;4.88;;;;;;;14.77;100.00;100280.63;688193;28;918;-45
2022/06/25 01:37:55;;;;;;;6.68;4.80;;;;;;;14.76;100.00;100281.53;687589;28;2456;-44
2022/06/25 01:38:16;;;;;;;6.70;5.03;;;;;;;14.75;100.00;100282.44;682149;28;1100;-45
2022/06/25 01:38:36;;;;;;;7.43;5.25;;;;;;;14.76;100.00;100279.78;685580;28;919;-44
2022/06/25 01:38:56;;;;;;;8.20;5.23;;;;;;;14.76;100.00;100279.78;684664;28;1279;-44
2022/06/25 01:39:17;;;;;;;6.30;5.28;;;;;;;14.75;100.00;100277.19;685088;28;950;-46
2022/06/25 01:39:37;;;;;;;6.73;5.00;;;;;;;14.75;100.00;100285.94;685017;28;4325;-45
2022/06/25 01:39:58;;;;;;;6.28;5.25;;;;;;;14.74;100.00;100278.94;687975;28;892;-44
2022/06/25 01:40:18;;;;;;;6.30;5.33;;;;;;;14.76;100.00;100284.16;692365;28;919;-45
2022/06/25 01:40:38;;;;;;;6.57;5.20;;;;;;;14.76;100.00;100284.16;693099;28;1561;-46
2022/06/25 01:40:59;;;;;;;7.45;5.13;;;;;;;14.78;100.00;100284.97;693093;28;1420;-44
2022/06/25 01:41:19;;;;;;;8.37;5.00;;;;;;;14.77;100.00;100288.50;691907;28;1348;-44
2022/06/25 01:41:40;;;;;;;7.38;4.82;;;;;;;14.77;100.00;100285.88;687796;28;963;-45
2022/06/25 01:42:00;;;;;;;7.67;5.03;;;;;;;14.75;100.00;100285.94;687206;28;829;-44
2022/06/25 01:43:03;;;;;;;6.28;5.10;;;;;;;14.77;100.00;100289.41;686311;28;1292;-46
2022/06/25 01:43:24;;;;;;;9.07;5.00;;;;;;;14.76;100.00;100287.66;687451;28;1911;-44